createdAt,value
2022-10-04T00:01:52.886Z,77.24
2022-10-04T00:04:29.205Z,77.22
2022-10-04T00:07:07.248Z,77.07
2022-10-04T00:09:46.505Z,77.15
2022-10-04T00:12:23.368Z,76.69
2022-10-04T00:14:59.959Z,77.07
2022-10-04T00:17:35.845Z,76.79
2022-10-04T00:20:54.849Z,77.28
2022-10-04T00:23:30.298Z,77.01
2022-10-04T00:26:27.432Z,77.13
2022-10-04T00:29:32.515Z,77.02
2022-10-04T00:32:28.707Z,77.43
2022-10-04T00:35:01.291Z,77.46
2022-10-04T00:37:58.202Z,77.33
2022-10-04T00:40:35.634Z,76.93
2022-10-04T00:43:14.932Z,77.41
2022-10-04T00:45:53.773Z,77.01
2022-10-04T00:48:37.182Z,77.58
2022-10-04T00:51:16.793Z,77.48
2022-10-04T00:54:10.570Z,77.58
2022-10-04T00:56:46.658Z,77.44
2022-10-04T00:59:38.853Z,77.31
2022-10-04T01:02:18.743Z,77.05
2022-10-04T01:04:55.019Z,76.96
2022-10-04T01:07:30.585Z,77.23
2022-10-04T01:10:09.201Z,77.03
2022-10-04T01:12:49.876Z,76.93
2022-10-04T01:15:30.325Z,77.29
2022-10-04T01:18:09.758Z,77.08
2022-10-04T01:20:52.992Z,77.50
2022-10-04T01:23:42.033Z,76.88
2022-10-04T01:26:38.337Z,77.00
2022-10-04T01:29:15.060Z,77.03
2022-10-04T01:31:49.548Z,77.47
2022-10-04T01:34:24.338Z,77.16
2022-10-04T01:36:59.274Z,77.13
2022-10-04T01:39:33.155Z,77.45
2022-10-04T01:42:10.189Z,76.70
2022-10-04T01:44:50.003Z,76.95
2022-10-04T01:47:31.246Z,77.02
2022-10-04T01:50:13.581Z,76.95
2022-10-04T01:52:53.205Z,77.01
2022-10-04T01:55:32.110Z,76.77
2022-10-04T01:58:10.878Z,77.42
2022-10-04T02:00:49.617Z,76.83
2022-10-04T02:03:29.996Z,77.34
2022-10-04T02:06:06.135Z,76.73
2022-10-04T02:08:41.558Z,77.30
2022-10-04T02:11:22.278Z,77.32
2022-10-04T02:13:55.998Z,76.78
2022-10-04T02:16:29.261Z,76.88
2022-10-04T02:19:03.754Z,77.29
2022-10-04T02:21:37.475Z,77.13
2022-10-04T02:24:11.575Z,77.29
2022-10-04T02:26:51.085Z,77.29
2022-10-04T02:29:23.565Z,77.05
2022-10-04T02:32:14.916Z,77.57
2022-10-04T02:34:48.347Z,77.54
2022-10-04T02:37:23.050Z,77.05
2022-10-04T02:40:03.160Z,77.40
2022-10-04T02:42:44.614Z,77.54
2022-10-04T02:45:21.688Z,77.55
2022-10-04T02:47:58.801Z,77.77
2022-10-04T02:50:36.276Z,77.44
2022-10-04T02:53:17.953Z,77.48
2022-10-04T02:55:50.838Z,77.26
2022-10-04T02:58:26.657Z,77.52
2022-10-04T03:01:00.770Z,77.51
2022-10-04T03:03:37.166Z,77.19
2022-10-04T03:06:13.807Z,77.47
2022-10-04T03:08:50.492Z,77.47
2022-10-04T03:11:27.516Z,77.40
2022-10-04T03:14:05.241Z,76.90
2022-10-04T03:16:39.808Z,77.59
2022-10-04T03:19:18.661Z,77.35
2022-10-04T03:21:55.338Z,77.45
2022-10-04T03:24:31.017Z,77.36
2022-10-04T03:27:06.667Z,77.58
2022-10-04T03:29:45.346Z,76.91
2022-10-04T03:32:19.544Z,77.46
2022-10-04T03:34:56.008Z,77.20
2022-10-04T03:37:31.154Z,77.47
2022-10-04T03:40:09.751Z,77.32
2022-10-04T03:42:49.324Z,77.63
2022-10-04T03:45:24.847Z,76.92
2022-10-04T03:48:05.314Z,77.33
2022-10-04T03:50:46.496Z,77.00
2022-10-04T03:53:28.323Z,77.31
2022-10-04T03:56:04.432Z,77.47
2022-10-04T03:58:37.329Z,76.94
2022-10-04T04:01:25.151Z,77.10
2022-10-04T04:04:04.337Z,76.80
2022-10-04T04:06:45.063Z,76.88
2022-10-04T04:09:22.510Z,77.39
2022-10-04T04:11:58.116Z,77.19
2022-10-04T04:14:30.617Z,77.34
2022-10-04T04:17:37.668Z,76.96
2022-10-04T04:20:31.495Z,76.94
2022-10-04T04:23:13.007Z,76.99
2022-10-04T04:25:48.049Z,77.28
2022-10-04T04:28:26.616Z,76.82
2022-10-04T04:31:04.270Z,77.19
2022-10-04T04:33:44.475Z,76.63
2022-10-04T04:36:17.544Z,76.54
2022-10-04T04:39:08.789Z,76.92
2022-10-04T04:41:43.092Z,76.90
2022-10-04T04:44:18.764Z,76.91
2022-10-04T04:46:52.699Z,76.65
2022-10-04T04:49:30.214Z,76.85
2022-10-04T04:52:03.712Z,76.84
2022-10-04T04:54:36.655Z,76.83
2022-10-04T04:57:09.152Z,76.64
2022-10-04T04:59:47.080Z,76.99
2022-10-04T05:02:35.289Z,76.69
2022-10-04T05:05:28.199Z,76.31
2022-10-04T05:08:13.244Z,76.52
2022-10-04T05:10:49.999Z,76.75
2022-10-04T05:13:26.670Z,76.12
2022-10-04T05:16:00.542Z,76.21
2022-10-04T05:18:34.151Z,75.96
2022-10-04T05:21:14.024Z,76.11
2022-10-04T05:23:47.473Z,76.14
2022-10-04T05:26:27.732Z,76.08
2022-10-04T05:29:02.174Z,75.97
2022-10-04T05:31:48.499Z,76.31
2022-10-04T05:34:24.974Z,76.07
2022-10-04T05:37:20.880Z,76.09
2022-10-04T05:40:04.158Z,76.72
2022-10-04T05:42:41.665Z,76.02
2022-10-04T05:45:19.848Z,76.46
2022-10-04T05:47:57.457Z,76.41
2022-10-04T05:50:33.810Z,76.28
2022-10-04T05:53:24.231Z,76.48
2022-10-04T05:56:19.951Z,76.84
2022-10-04T05:59:04.568Z,76.59
2022-10-04T06:01:47.181Z,76.45
2022-10-04T06:04:37.135Z,77.08
2022-10-04T06:07:21.879Z,77.23
2022-10-04T06:10:11.618Z,76.94
2022-10-04T06:12:53.537Z,77.61
2022-10-04T06:15:57.764Z,77.63
2022-10-04T06:18:47.222Z,77.55
2022-10-04T06:21:22.389Z,77.26
2022-10-04T06:24:03.051Z,77.57
2022-10-04T06:26:43.956Z,77.22
2022-10-04T06:29:21.048Z,77.29
2022-10-04T06:32:26.821Z,77.50
2022-10-04T06:35:30.752Z,78.01
2022-10-04T06:38:39.441Z,77.86
2022-10-04T06:41:28.443Z,78.13
2022-10-04T06:44:36.970Z,78.31
2022-10-04T06:47:25.897Z,78.06
2022-10-04T06:50:17.800Z,77.43
2022-10-04T06:53:09.910Z,77.54
2022-10-04T06:56:04.875Z,77.15
2022-10-04T06:59:05.862Z,77.31
2022-10-04T07:01:50.218Z,77.66
2022-10-04T07:04:44.989Z,77.31
2022-10-04T07:07:35.961Z,77.65
2022-10-04T07:10:35.263Z,77.73
2022-10-04T07:13:19.107Z,78.09
2022-10-04T07:15:57.183Z,78.01
2022-10-04T07:18:36.723Z,78.21
2022-10-04T07:21:13.085Z,78.42
2022-10-04T07:23:50.500Z,78.79
2022-10-04T07:26:29.353Z,78.69
2022-10-04T07:29:21.071Z,79.13
2022-10-04T07:32:08.399Z,79.09
2022-10-04T07:34:47.245Z,78.96
2022-10-04T07:37:21.582Z,79.09
2022-10-04T07:40:00.283Z,79.47
2022-10-04T07:42:40.930Z,79.51
2022-10-04T07:45:17.934Z,80.03
2022-10-04T07:47:50.757Z,79.52
2022-10-04T07:50:26.714Z,79.75
2022-10-04T07:53:09.288Z,79.50
2022-10-04T07:55:50.261Z,79.92
2022-10-04T07:58:31.611Z,79.96
2022-10-04T08:01:11.158Z,80.07
2022-10-04T08:04:02.661Z,80.04
2022-10-04T08:06:39.668Z,80.06
2022-10-04T08:09:29.357Z,80.30
2022-10-04T08:12:12.947Z,80.15
2022-10-04T08:14:54.590Z,80.50
2022-10-04T08:17:42.046Z,80.56
2022-10-04T08:20:35.964Z,80.19
2022-10-04T08:23:32.641Z,80.62
2022-10-04T08:26:17.514Z,80.20
2022-10-04T08:29:17.211Z,80.44
2022-10-04T08:32:05.215Z,80.33
2022-10-04T08:34:58.315Z,80.46
2022-10-04T08:37:44.247Z,80.79
2022-10-04T08:41:02.421Z,80.88
2022-10-04T08:44:19.120Z,80.77
2022-10-04T08:47:30.705Z,80.83
2022-10-04T08:50:40.944Z,80.40
2022-10-04T08:53:42.394Z,80.46
2022-10-04T08:56:27.113Z,80.60
2022-10-04T08:59:37.463Z,80.23
2022-10-04T09:02:39.771Z,80.38
2022-10-04T09:05:32.451Z,80.82
2022-10-04T09:08:33.846Z,80.82
2022-10-04T09:11:34.540Z,80.51
2022-10-04T09:14:29.354Z,80.57
2022-10-04T09:17:22.214Z,80.28
2022-10-04T09:20:26.642Z,80.83
2022-10-04T09:23:12.741Z,80.22
2022-10-04T09:25:52.687Z,80.38
2022-10-04T09:29:04.715Z,80.13
2022-10-04T09:32:28.346Z,79.68
2022-10-04T09:35:19.292Z,79.57
2022-10-04T09:38:10.481Z,79.80
2022-10-04T09:41:10.921Z,79.87
2022-10-04T09:44:13.161Z,79.90
2022-10-04T09:47:02.469Z,79.56
2022-10-04T09:50:00.283Z,79.19
2022-10-04T09:52:44.855Z,79.16
2022-10-04T09:55:36.110Z,79.04
2022-10-04T09:58:34.100Z,79.38
2022-10-04T10:01:17.022Z,78.89
2022-10-04T10:04:26.004Z,79.10
2022-10-04T10:07:21.431Z,78.86
2022-10-04T10:10:20.254Z,78.63
2022-10-04T10:13:33.603Z,78.57
2022-10-04T10:16:21.603Z,78.30
2022-10-04T10:19:11.553Z,78.20
2022-10-04T10:22:01.439Z,78.47
2022-10-04T10:25:05.584Z,78.06
2022-10-04T10:28:15.193Z,77.76
2022-10-04T10:31:05.775Z,77.22
2022-10-04T10:34:01.944Z,77.88
2022-10-04T10:36:49.791Z,77.56
2022-10-04T10:39:49.111Z,77.91
2022-10-04T10:42:40.399Z,77.18
2022-10-04T10:45:28.037Z,77.43
2022-10-04T10:48:05.642Z,77.29
2022-10-04T10:51:11.194Z,77.58
2022-10-04T10:54:20.836Z,77.01
2022-10-04T10:57:06.074Z,77.26
2022-10-04T11:00:11.971Z,76.79
2022-10-04T11:03:32.519Z,76.73
2022-10-04T11:06:15.749Z,76.57
2022-10-04T11:09:27.437Z,76.41
2022-10-04T11:12:22.000Z,76.66
2022-10-04T11:15:47.775Z,76.44
2022-10-04T11:18:54.589Z,76.73
2022-10-04T11:22:08.400Z,76.19
2022-10-04T11:25:00.705Z,75.64
2022-10-04T11:27:49.413Z,75.69
2022-10-04T11:30:26.426Z,76.07
2022-10-04T11:33:31.391Z,75.63
2022-10-04T11:36:32.122Z,76.13
2022-10-04T11:39:26.834Z,75.72
2022-10-04T11:42:12.253Z,75.96
2022-10-04T11:45:06.633Z,75.68
2022-10-04T11:47:45.305Z,75.32
2022-10-04T11:50:35.538Z,75.52
2022-10-04T11:53:52.827Z,75.77
2022-10-04T11:56:34.933Z,75.64
2022-10-04T11:59:22.732Z,75.42
2022-10-04T12:02:49.320Z,75.20
2022-10-04T12:05:46.849Z,75.42
2022-10-04T12:08:29.473Z,74.79
2022-10-04T12:11:51.718Z,74.89
2022-10-04T12:14:42.042Z,74.63
2022-10-04T12:17:53.055Z,74.66
2022-10-04T12:20:48.383Z,75.03
2022-10-04T12:23:50.886Z,74.19
2022-10-04T12:33:24.544Z,73.23
2022-10-04T12:36:11.588Z,73.52
2022-10-04T12:39:04.280Z,72.38
2022-10-04T12:41:47.843Z,72.83
2022-10-04T12:44:34.826Z,72.83
2022-10-04T12:47:53.385Z,72.69
2022-10-04T12:50:41.034Z,72.32
2022-10-04T12:53:34.817Z,72.32
2022-10-04T12:56:22.549Z,72.85
2022-10-04T12:59:19.544Z,72.67
2022-10-04T13:02:02.572Z,72.48
2022-10-04T13:04:42.478Z,72.40
2022-10-04T13:07:37.146Z,72.40
2022-10-04T13:10:31.154Z,72.26
2022-10-04T13:13:33.819Z,72.20
2022-10-04T13:19:15.409Z,71.94
2022-10-04T13:22:11.890Z,72.00
2022-10-04T13:24:58.537Z,71.85
2022-10-04T13:27:46.317Z,72.45
2022-10-04T13:30:26.540Z,72.48
2022-10-04T13:33:06.999Z,72.63
2022-10-04T13:35:50.145Z,72.28
2022-10-04T13:38:43.937Z,72.63
2022-10-04T13:41:34.104Z,72.43
2022-10-04T13:44:26.327Z,73.01
2022-10-04T13:47:17.782Z,73.18
2022-10-04T13:50:04.869Z,73.11
2022-10-04T13:53:04.170Z,73.47
2022-10-04T13:56:02.449Z,73.85
2022-10-04T13:58:47.686Z,74.15
2022-10-04T14:01:50.038Z,74.10
2022-10-04T14:05:09.611Z,74.65
2022-10-04T14:07:59.110Z,74.48
2022-10-04T14:10:57.582Z,74.89
2022-10-04T14:14:10.765Z,75.10
2022-10-04T14:17:13.135Z,75.24
2022-10-04T14:20:09.083Z,75.31
2022-10-04T14:23:22.416Z,75.49
2022-10-04T14:26:26.506Z,75.49
2022-10-04T14:29:24.309Z,75.65
2022-10-04T14:32:23.756Z,75.88
2022-10-04T14:35:01.603Z,76.08
2022-10-04T14:38:03.097Z,76.54
2022-10-04T14:41:14.877Z,76.43
2022-10-04T14:44:33.090Z,76.55
2022-10-04T14:47:16.224Z,76.74
2022-10-04T14:50:06.174Z,76.67
2022-10-04T14:52:52.183Z,76.69
2022-10-04T14:55:52.210Z,77.27
2022-10-04T14:58:33.181Z,77.28
2022-10-04T15:01:20.763Z,77.23
2022-10-04T15:04:14.620Z,77.17
2022-10-04T15:06:51.389Z,77.49
2022-10-04T15:09:50.848Z,77.15
2022-10-04T15:13:09.783Z,77.66
2022-10-04T15:15:53.914Z,77.53
2022-10-04T15:18:39.230Z,77.50
2022-10-04T15:21:33.141Z,77.37
2022-10-04T15:24:25.463Z,77.65
2022-10-04T15:27:35.906Z,77.12
2022-10-04T15:30:21.347Z,77.21
2022-10-04T15:33:09.394Z,77.33
2022-10-04T15:35:54.299Z,77.45
2022-10-04T15:38:33.084Z,77.56
2022-10-04T15:41:16.811Z,77.72
2022-10-04T15:44:21.113Z,77.77
2022-10-04T15:47:08.328Z,77.62
2022-10-04T15:50:11.233Z,77.87
2022-10-04T15:53:19.613Z,78.09
2022-10-04T15:56:05.987Z,78.11
2022-10-04T15:58:54.367Z,77.85
2022-10-04T16:01:46.057Z,77.88
2022-10-04T16:04:41.712Z,78.01
2022-10-04T16:07:39.124Z,78.38
2022-10-04T16:10:27.603Z,78.25
2022-10-04T16:13:37.147Z,78.35
2022-10-04T16:16:41.553Z,78.34
2022-10-04T16:19:30.433Z,78.15
2022-10-04T16:22:15.156Z,78.03
2022-10-04T16:24:51.620Z,78.07
2022-10-04T16:27:50.617Z,78.21
2022-10-04T16:30:29.002Z,77.78
2022-10-04T16:33:12.692Z,77.97
2022-10-04T16:35:53.082Z,78.09
2022-10-04T16:38:28.962Z,77.93
2022-10-04T16:41:14.557Z,78.02
2022-10-04T16:43:54.246Z,78.12
2022-10-04T16:46:34.783Z,78.02
2022-10-04T16:49:24.056Z,77.62
2022-10-04T16:52:13.220Z,77.69
2022-10-04T16:55:11.436Z,77.82
2022-10-04T16:57:44.146Z,77.58
2022-10-04T17:00:38.465Z,77.48
2022-10-04T17:03:24.795Z,77.54
2022-10-04T17:06:14.268Z,77.81
2022-10-04T17:08:51.482Z,77.39
2022-10-04T17:11:41.539Z,77.66
2022-10-04T17:14:48.492Z,77.50
2022-10-04T17:17:35.377Z,77.68
2022-10-04T17:20:18.081Z,77.78
2022-10-04T17:23:03.309Z,77.53
2022-10-04T17:25:45.808Z,77.33
2022-10-04T17:28:29.407Z,77.61
2022-10-04T17:31:11.756Z,77.39
2022-10-04T17:33:57.235Z,77.66
2022-10-04T17:36:37.854Z,77.68
2022-10-04T17:39:33.906Z,77.73
2022-10-04T17:42:20.922Z,77.99
2022-10-04T17:45:18.863Z,78.02
2022-10-04T17:48:20.314Z,77.59
2022-10-04T17:51:21.301Z,77.79
2022-10-04T17:54:19.025Z,77.42
2022-10-04T17:57:09.464Z,77.97
2022-10-04T17:59:48.747Z,77.59
2022-10-04T18:02:28.354Z,77.90
2022-10-04T18:05:08.795Z,77.78
2022-10-04T18:07:48.890Z,77.90
2022-10-04T18:10:28.752Z,78.00
2022-10-04T18:13:06.133Z,78.05
2022-10-04T18:15:44.222Z,77.61
2022-10-04T18:18:21.398Z,77.81
2022-10-04T18:21:19.755Z,77.82
2022-10-04T18:23:57.086Z,77.72
2022-10-04T18:26:32.902Z,77.81
2022-10-04T18:29:12.827Z,78.09
2022-10-04T18:31:46.623Z,78.20
2022-10-04T18:34:29.083Z,77.97
2022-10-04T18:37:20.348Z,78.00
2022-10-04T18:39:55.879Z,78.16
2022-10-04T18:42:30.592Z,78.31
2022-10-04T18:45:21.995Z,78.47
2022-10-04T18:47:56.811Z,78.07
2022-10-04T18:50:34.355Z,78.31
2022-10-04T18:53:38.572Z,78.24
2022-10-04T18:56:14.120Z,78.12
2022-10-04T18:59:20.656Z,78.46
2022-10-04T19:02:07.088Z,78.18
2022-10-04T19:04:56.321Z,78.04
2022-10-04T19:07:38.603Z,78.43
2022-10-04T19:10:27.834Z,78.28
2022-10-04T19:13:15.986Z,78.34
2022-10-04T19:16:07.520Z,78.51
2022-10-04T19:19:01.622Z,78.63
2022-10-04T19:21:45.835Z,78.72
2022-10-04T19:24:44.707Z,78.48
2022-10-04T19:27:26.044Z,78.48
2022-10-04T19:30:21.795Z,78.70
2022-10-04T19:33:04.761Z,78.77
2022-10-04T19:35:57.709Z,78.74
2022-10-04T19:38:44.344Z,78.73
2022-10-04T19:41:27.962Z,78.60
2022-10-04T19:44:11.637Z,78.71
2022-10-04T19:46:56.288Z,78.54
2022-10-04T19:49:41.475Z,78.62
2022-10-04T19:52:23.457Z,78.60
2022-10-04T19:55:02.539Z,78.60
2022-10-04T19:57:38.282Z,78.62
2022-10-04T20:00:13.091Z,78.31
2022-10-04T20:02:48.804Z,78.32
2022-10-04T20:05:25.396Z,78.17
2022-10-04T20:08:05.352Z,78.41
2022-10-04T20:10:39.668Z,78.57
2022-10-04T20:13:21.485Z,78.34
2022-10-04T20:15:56.022Z,78.29
2022-10-04T20:19:05.257Z,78.06
2022-10-04T20:21:39.286Z,78.30
2022-10-04T20:24:17.387Z,78.49
2022-10-04T20:26:54.270Z,78.21
2022-10-04T20:30:04.665Z,78.26
2022-10-04T20:33:01.200Z,78.24
2022-10-04T20:36:05.059Z,78.41
2022-10-04T20:38:53.867Z,78.78
2022-10-04T20:42:04.067Z,78.66
2022-10-04T20:44:56.758Z,78.21
2022-10-04T20:47:47.927Z,78.27
2022-10-04T20:50:33.672Z,78.66
2022-10-04T20:53:15.363Z,78.00
2022-10-04T20:55:50.908Z,78.25
2022-10-04T20:58:35.200Z,78.34
2022-10-04T21:01:37.751Z,78.60
2022-10-04T21:04:15.412Z,78.53
2022-10-04T21:06:51.719Z,78.45
2022-10-04T21:09:25.836Z,78.49
2022-10-04T21:12:01.335Z,78.35
2022-10-04T21:14:34.795Z,78.75
2022-10-04T21:17:34.583Z,78.41
2022-10-04T21:20:13.706Z,78.38
2022-10-04T21:22:48.707Z,78.53
2022-10-04T21:25:33.685Z,78.42
2022-10-04T21:28:32.219Z,78.72
2022-10-04T21:31:05.401Z,78.41
2022-10-04T21:33:38.376Z,78.38
2022-10-04T21:36:10.908Z,78.44
2022-10-04T21:38:43.384Z,78.46
2022-10-04T21:41:15.847Z,78.37
2022-10-04T21:43:49.757Z,78.57
2022-10-04T21:46:22.211Z,78.42
2022-10-04T21:48:54.719Z,78.50
2022-10-04T21:51:27.245Z,78.44
2022-10-04T21:53:59.829Z,78.39
2022-10-04T21:56:32.387Z,78.58
2022-10-04T21:59:06.251Z,78.26
2022-10-04T22:01:38.661Z,78.68
2022-10-04T22:04:11.241Z,78.84
2022-10-04T22:06:44.163Z,78.59
2022-10-04T22:09:16.768Z,78.68
2022-10-04T22:11:49.906Z,78.65
2022-10-04T22:14:23.873Z,78.94
2022-10-04T22:16:56.292Z,78.83
2022-10-04T22:19:28.801Z,78.97
2022-10-04T22:22:01.284Z,79.10
2022-10-04T22:24:36.438Z,79.09
2022-10-04T22:27:13.304Z,79.20
2022-10-04T22:29:47.484Z,79.19
2022-10-04T22:32:26.423Z,79.44
2022-10-04T22:35:01.966Z,79.31
2022-10-04T22:37:35.852Z,79.61
2022-10-04T22:40:15.779Z,79.23
2022-10-04T22:42:51.616Z,79.43
2022-10-04T22:45:27.460Z,79.70
2022-10-04T22:48:07.035Z,79.63
2022-10-04T22:50:39.807Z,79.52
2022-10-04T22:53:16.485Z,79.34
2022-10-04T22:55:50.055Z,79.75
2022-10-04T22:58:22.626Z,79.95
2022-10-04T23:00:56.517Z,79.79
2022-10-04T23:03:32.304Z,79.69
2022-10-04T23:06:04.874Z,79.69
2022-10-04T23:08:37.193Z,80.10
2022-10-04T23:11:10.538Z,79.79
2022-10-04T23:13:43.013Z,79.75
2022-10-04T23:16:19.753Z,80.03
2022-10-04T23:19:01.824Z,80.08
2022-10-04T23:21:37.187Z,80.09
2022-10-04T23:24:15.799Z,80.46
2022-10-04T23:26:53.195Z,80.15
2022-10-04T23:29:29.876Z,80.30
2022-10-04T23:32:09.941Z,80.33
2022-10-04T23:34:45.625Z,80.01
2022-10-04T23:37:22.337Z,80.07
2022-10-04T23:39:54.748Z,80.67
2022-10-04T23:42:29.944Z,80.43
2022-10-04T23:45:02.915Z,80.36
2022-10-04T23:47:38.242Z,80.32
2022-10-04T23:50:21.257Z,80.49
2022-10-04T23:52:58.361Z,80.53
2022-10-04T23:55:36.442Z,80.84
2022-10-04T23:58:14.577Z,80.48
